createdAt,value
2019-03-10T00:00:04.491Z,6.19
2019-03-10T00:01:04.474Z,6.12
2019-03-10T00:02:04.426Z,6.18
2019-03-10T00:03:04.381Z,6.19
2019-03-10T00:04:04.324Z,6.06
2019-03-10T00:05:04.321Z,6.03
2019-03-10T00:06:04.251Z,5.96
2019-03-10T00:07:04.225Z,5.89
2019-03-10T00:08:04.225Z,5.89
2019-03-10T00:09:04.126Z,5.91
2019-03-10T00:10:04.101Z,5.89
2019-03-10T00:11:04.060Z,5.78
2019-03-10T00:12:04.036Z,5.86
2019-03-10T00:13:03.984Z,5.82
2019-03-10T00:14:03.932Z,5.78
2019-03-10T00:15:03.898Z,6.06
2019-03-10T00:16:03.892Z,6.12
2019-03-10T00:17:03.825Z,6.25
2019-03-10T00:18:03.798Z,6.30
2019-03-10T00:19:03.748Z,6.30
2019-03-10T00:20:03.687Z,6.31
2019-03-10T00:21:03.659Z,6.31
2019-03-10T00:22:03.614Z,6.43
2019-03-10T00:23:03.570Z,6.41
2019-03-10T00:24:03.544Z,6.40
2019-03-10T00:25:03.503Z,6.43
2019-03-10T00:26:03.454Z,6.40
2019-03-10T00:27:03.439Z,6.58
2019-03-10T00:28:03.382Z,6.62
2019-03-10T00:29:03.348Z,6.58
2019-03-10T00:30:03.290Z,6.59
2019-03-10T00:31:03.255Z,6.61
2019-03-10T00:32:03.249Z,6.58
2019-03-10T00:33:03.187Z,6.61
2019-03-10T00:34:03.137Z,6.71
2019-03-10T00:35:03.088Z,6.74
2019-03-10T00:36:03.045Z,6.71
2019-03-10T00:37:03.039Z,6.62
2019-03-10T00:38:02.977Z,6.49
2019-03-10T00:39:02.940Z,6.49
2019-03-10T00:40:02.899Z,6.43
2019-03-10T00:41:02.841Z,6.48
2019-03-10T00:42:02.807Z,6.31
2019-03-10T00:43:02.800Z,6.34
2019-03-10T00:44:02.740Z,6.21
2019-03-10T00:45:02.695Z,6.18
2019-03-10T00:46:02.664Z,6.14
2019-03-10T00:47:02.622Z,6.11
2019-03-10T00:48:02.574Z,6.06
2019-03-10T00:49:02.539Z,6.08
2019-03-10T00:50:02.507Z,6.06
2019-03-10T00:51:02.450Z,6.03
2019-03-10T00:52:02.408Z,6.00
2019-03-10T00:53:02.406Z,5.99
2019-03-10T00:54:02.331Z,5.85
2019-03-10T00:55:02.340Z,6.21
2019-03-10T00:56:02.279Z,6.55
2019-03-10T00:57:02.225Z,6.71
2019-03-10T00:58:02.192Z,6.79
2019-03-10T00:59:02.148Z,6.71
2019-03-10T01:00:02.101Z,6.73
2019-03-10T01:01:02.069Z,6.81
2019-03-10T01:02:02.033Z,6.71
2019-03-10T01:03:01.985Z,6.59
2019-03-10T01:04:01.930Z,6.59
2019-03-10T01:05:01.909Z,6.56
2019-03-10T01:06:01.862Z,6.58
2019-03-10T01:07:01.981Z,6.48
2019-03-10T01:08:01.781Z,6.46
2019-03-10T01:09:01.729Z,6.41
2019-03-10T01:10:01.689Z,6.49
2019-03-10T01:11:01.669Z,6.48
2019-03-10T01:12:01.634Z,6.58
2019-03-10T01:13:01.578Z,6.76
2019-03-10T01:14:01.570Z,6.74
2019-03-10T01:15:03.086Z,6.85
2019-03-10T01:16:01.486Z,6.91
2019-03-10T01:17:01.412Z,6.91
2019-03-10T01:18:01.380Z,6.97
2019-03-10T01:19:01.328Z,6.97
2019-03-10T01:20:01.316Z,6.92
2019-03-10T01:21:01.254Z,6.88
2019-03-10T01:22:01.245Z,7.02
2019-03-10T01:23:01.256Z,7.12
2019-03-10T01:24:01.149Z,7.23
2019-03-10T01:25:01.093Z,7.15
2019-03-10T01:26:01.067Z,7.09
2019-03-10T01:27:01.015Z,7.20
2019-03-10T01:28:00.979Z,7.28
2019-03-10T01:29:00.932Z,7.31
2019-03-10T01:30:00.895Z,7.28
2019-03-10T01:31:00.852Z,7.43
2019-03-10T01:32:00.827Z,7.34
2019-03-10T01:33:00.790Z,7.42
2019-03-10T01:34:00.901Z,7.50
2019-03-10T01:35:00.708Z,7.42
2019-03-10T01:36:00.655Z,7.52
2019-03-10T01:37:00.630Z,7.52
2019-03-10T01:38:00.594Z,7.63
2019-03-10T01:39:00.581Z,7.63
2019-03-10T01:40:00.503Z,7.68
2019-03-10T01:41:00.459Z,7.74
2019-03-10T01:42:00.420Z,7.71
2019-03-10T01:43:00.387Z,7.74
2019-03-10T01:44:00.359Z,7.75
2019-03-10T01:45:00.537Z,7.68
2019-03-10T01:46:00.301Z,7.74
2019-03-10T01:47:00.235Z,7.77
2019-03-10T01:48:00.209Z,7.83
2019-03-10T01:49:00.171Z,7.68
2019-03-10T01:50:00.180Z,7.64
2019-03-10T01:51:00.090Z,7.64
2019-03-10T01:52:00.039Z,7.67
2019-03-10T01:52:59.995Z,7.64
2019-03-10T01:53:59.947Z,7.53
2019-03-10T01:54:59.936Z,7.52
2019-03-10T01:55:59.889Z,7.58
2019-03-10T01:56:59.837Z,7.50
2019-03-10T01:57:59.858Z,7.52
2019-03-10T01:58:59.762Z,7.40
2019-03-10T01:59:59.752Z,7.50
2019-03-10T02:00:59.707Z,7.53
2019-03-10T02:01:59.651Z,7.74
2019-03-10T02:02:59.591Z,7.72
2019-03-10T02:03:59.565Z,7.86
2019-03-10T02:04:59.558Z,8.01
2019-03-10T02:05:59.532Z,7.90
2019-03-10T02:06:59.549Z,8.00
2019-03-10T02:07:59.464Z,7.95
2019-03-10T02:08:59.370Z,7.90
2019-03-10T02:09:59.324Z,7.93
2019-03-10T02:10:59.281Z,7.98
2019-03-10T02:11:59.229Z,7.95
2019-03-10T02:12:59.210Z,7.95
2019-03-10T02:13:59.167Z,7.98
2019-03-10T02:14:59.119Z,7.89
2019-03-10T02:15:59.115Z,7.77
2019-03-10T02:16:59.046Z,7.75
2019-03-10T02:17:59.002Z,7.77
2019-03-10T02:18:58.981Z,7.77
2019-03-10T02:19:58.924Z,7.82
2019-03-10T02:20:58.899Z,7.93
2019-03-10T02:21:58.892Z,7.92
2019-03-10T02:22:58.809Z,7.95
2019-03-10T02:23:58.776Z,7.90
2019-03-10T02:24:58.748Z,7.77
2019-03-10T02:25:58.706Z,7.69
2019-03-10T02:26:58.767Z,7.71
2019-03-10T02:27:58.627Z,7.72
2019-03-10T02:28:58.653Z,7.68
2019-03-10T02:29:58.541Z,7.74
2019-03-10T02:30:58.498Z,7.67
2019-03-10T02:31:58.451Z,7.60
2019-03-10T02:32:58.410Z,7.45
2019-03-10T02:33:58.373Z,7.37
2019-03-10T02:34:58.357Z,7.37
2019-03-10T02:35:58.334Z,7.27
2019-03-10T02:36:58.270Z,7.05
2019-03-10T02:37:58.231Z,7.07
2019-03-10T02:38:58.204Z,6.97
2019-03-10T02:39:58.143Z,6.74
2019-03-10T02:40:58.114Z,6.69
2019-03-10T02:41:58.079Z,6.59
2019-03-10T02:42:58.043Z,6.70
2019-03-10T02:43:58.005Z,6.80
2019-03-10T02:44:57.974Z,6.79
2019-03-10T02:45:57.973Z,6.89
2019-03-10T02:46:57.864Z,6.62
2019-03-10T02:47:57.860Z,6.66
2019-03-10T02:48:57.781Z,6.58
2019-03-10T02:49:57.732Z,6.40
2019-03-10T02:50:57.736Z,6.31
2019-03-10T02:51:57.676Z,6.22
2019-03-10T02:52:57.646Z,6.31
2019-03-10T02:53:57.609Z,6.15
2019-03-10T02:54:57.650Z,6.25
2019-03-10T02:55:57.522Z,6.15
2019-03-10T02:56:57.477Z,6.06
2019-03-10T02:57:57.437Z,6.03
2019-03-10T02:58:57.400Z,6.09
2019-03-10T02:59:57.434Z,6.09
2019-03-10T03:00:57.392Z,6.08
2019-03-10T03:01:57.293Z,5.97
2019-03-10T03:02:57.216Z,5.90
2019-03-10T03:03:57.209Z,5.83
2019-03-10T03:04:57.161Z,5.85
2019-03-10T03:05:57.130Z,6.08
2019-03-10T03:06:57.138Z,6.30
2019-03-10T03:07:57.089Z,6.34
2019-03-10T03:08:56.994Z,6.27
2019-03-10T03:09:56.953Z,6.46
2019-03-10T03:10:56.921Z,6.55
2019-03-10T03:11:56.863Z,6.66
2019-03-10T03:12:56.831Z,6.84
2019-03-10T03:13:56.837Z,6.91
2019-03-10T03:14:56.768Z,6.98
2019-03-10T03:15:56.726Z,6.97
2019-03-10T03:16:56.703Z,6.91
2019-03-10T03:17:56.647Z,6.84
2019-03-10T03:18:56.594Z,6.79
2019-03-10T03:19:56.569Z,6.88
2019-03-10T03:20:56.517Z,6.74
2019-03-10T03:21:56.502Z,6.84
2019-03-10T03:22:56.461Z,6.92
2019-03-10T03:23:56.407Z,6.84
2019-03-10T03:24:56.361Z,6.73
2019-03-10T03:25:56.491Z,6.54
2019-03-10T03:26:56.301Z,6.66
2019-03-10T03:27:56.329Z,6.70
2019-03-10T03:28:56.215Z,6.89
2019-03-10T03:29:56.236Z,6.89
2019-03-10T03:30:56.124Z,6.99
2019-03-10T03:31:56.117Z,6.98
2019-03-10T03:32:56.064Z,6.99
2019-03-10T03:33:56.028Z,6.88
2019-03-10T03:34:55.961Z,6.89
2019-03-10T03:35:55.910Z,6.76
2019-03-10T03:36:55.890Z,6.76
2019-03-10T03:37:55.852Z,6.69
2019-03-10T03:38:55.857Z,6.58
2019-03-10T03:39:55.752Z,6.69
2019-03-10T03:40:55.728Z,6.54
2019-03-10T03:41:55.692Z,6.52
2019-03-10T03:42:55.701Z,6.38
2019-03-10T03:43:55.601Z,6.30
2019-03-10T03:44:55.568Z,6.30
2019-03-10T03:45:55.673Z,6.36
2019-03-10T03:46:55.483Z,6.28
2019-03-10T03:47:55.463Z,6.22
2019-03-10T03:48:55.433Z,6.21
2019-03-10T03:49:55.363Z,6.22
2019-03-10T03:50:55.346Z,6.22
2019-03-10T03:51:55.279Z,6.08
2019-03-10T03:52:55.274Z,6.18
2019-03-10T03:53:55.261Z,6.15
2019-03-10T03:54:55.162Z,6.08
2019-03-10T03:55:55.123Z,6.08
2019-03-10T03:56:55.106Z,6.04
2019-03-10T03:57:55.066Z,6.06
2019-03-10T03:58:55.054Z,6.03
2019-03-10T03:59:54.968Z,6.08
2019-03-10T04:00:54.956Z,6.14
2019-03-10T04:01:54.917Z,6.19
2019-03-10T04:02:54.849Z,6.21
2019-03-10T04:03:54.849Z,6.25
2019-03-10T04:04:54.775Z,6.25
2019-03-10T04:05:54.774Z,6.21
2019-03-10T04:06:54.731Z,6.12
2019-03-10T04:07:54.652Z,6.21
2019-03-10T04:08:54.600Z,6.27
2019-03-10T04:09:54.581Z,6.21
2019-03-10T04:10:54.553Z,6.15
2019-03-10T04:11:54.506Z,6.27
2019-03-10T04:12:54.433Z,6.18
2019-03-10T04:13:54.443Z,6.12
2019-03-10T04:14:54.378Z,6.09
2019-03-10T04:15:54.369Z,6.09
2019-03-10T04:16:54.297Z,6.12
2019-03-10T04:17:54.257Z,6.19
2019-03-10T04:18:54.245Z,6.06
2019-03-10T04:19:54.168Z,6.04
2019-03-10T04:20:54.133Z,6.14
2019-03-10T04:21:54.096Z,6.21
2019-03-10T04:22:54.112Z,6.27
2019-03-10T04:23:53.997Z,6.31
2019-03-10T04:24:53.972Z,6.25
2019-03-10T04:25:53.917Z,6.18
2019-03-10T04:26:53.936Z,6.19
2019-03-10T04:27:53.843Z,6.21
2019-03-10T04:28:53.831Z,6.18
2019-03-10T04:29:53.800Z,6.04
2019-03-10T04:30:53.730Z,6.12
2019-03-10T04:31:53.725Z,6.06
2019-03-10T04:32:53.651Z,6.00
2019-03-10T04:33:53.647Z,5.99
2019-03-10T04:34:53.596Z,6.08
2019-03-10T04:35:53.541Z,6.09
2019-03-10T04:36:53.494Z,6.17
2019-03-10T04:37:53.448Z,6.03
2019-03-10T04:38:53.414Z,6.06
2019-03-10T04:39:53.360Z,6.08
2019-03-10T04:40:53.344Z,6.03
2019-03-10T04:41:53.300Z,6.06
2019-03-10T04:42:53.253Z,6.03
2019-03-10T04:43:53.216Z,6.01
2019-03-10T04:44:53.180Z,6.01
2019-03-10T04:45:53.154Z,5.97
2019-03-10T04:46:53.106Z,5.93
2019-03-10T04:47:53.066Z,6.04
2019-03-10T04:48:53.039Z,5.96
2019-03-10T04:49:53.009Z,5.85
2019-03-10T04:50:52.945Z,5.94
2019-03-10T04:51:52.893Z,6.14
2019-03-10T04:52:52.866Z,6.21
2019-03-10T04:53:52.824Z,6.34
2019-03-10T04:54:52.787Z,6.25
2019-03-10T04:55:52.749Z,6.33
2019-03-10T04:56:52.735Z,6.19
2019-03-10T04:57:52.649Z,6.18
2019-03-10T04:58:52.613Z,6.18
2019-03-10T04:59:52.585Z,6.08
2019-03-10T05:00:52.603Z,6.08
2019-03-10T05:01:52.531Z,6.11
2019-03-10T05:02:52.466Z,6.08
2019-03-10T05:03:52.403Z,6.00
2019-03-10T05:04:52.388Z,6.09
2019-03-10T05:05:52.462Z,5.99
2019-03-10T05:06:52.299Z,6.03
2019-03-10T05:07:52.261Z,6.12
2019-03-10T05:08:52.249Z,5.99
2019-03-10T05:09:52.170Z,5.99
2019-03-10T05:10:52.165Z,6.01
2019-03-10T05:11:52.097Z,5.99
2019-03-10T05:12:52.084Z,6.06
2019-03-10T05:13:52.018Z,6.04
2019-03-10T05:14:51.984Z,5.97
2019-03-10T05:15:51.945Z,6.01
2019-03-10T05:16:51.891Z,5.96
2019-03-10T05:17:51.858Z,5.91
2019-03-10T05:18:51.819Z,6.00
2019-03-10T05:19:51.793Z,5.85
2019-03-10T05:20:51.820Z,5.86
2019-03-10T05:21:51.728Z,5.99
2019-03-10T05:22:51.672Z,6.04
2019-03-10T05:23:51.636Z,6.04
2019-03-10T05:24:51.600Z,6.14
2019-03-10T05:25:51.526Z,6.06
2019-03-10T05:26:51.598Z,6.04
2019-03-10T05:27:51.588Z,6.06
2019-03-10T05:28:51.459Z,6.08
2019-03-10T05:29:51.426Z,6.28
2019-03-10T05:30:51.396Z,6.38
2019-03-10T05:31:51.307Z,6.44
2019-03-10T05:32:51.245Z,6.71
2019-03-10T05:33:51.217Z,6.74
2019-03-10T05:34:51.185Z,6.73
2019-03-10T05:35:51.164Z,6.76
2019-03-10T05:36:51.114Z,6.73
2019-03-10T05:37:51.046Z,6.89
2019-03-10T05:38:51.034Z,6.85
2019-03-10T05:39:50.985Z,6.67
2019-03-10T05:40:50.945Z,6.70
2019-03-10T05:41:50.913Z,6.58
2019-03-10T05:42:50.861Z,6.58
2019-03-10T05:43:50.821Z,6.58
2019-03-10T05:44:50.781Z,6.54
2019-03-10T05:45:50.759Z,6.49
2019-03-10T05:46:50.709Z,6.46
2019-03-10T05:47:50.655Z,6.44
2019-03-10T05:48:50.648Z,6.46
2019-03-10T05:49:50.635Z,6.46
2019-03-10T05:50:50.643Z,6.48
2019-03-10T05:51:50.501Z,6.70
2019-03-10T05:52:50.481Z,6.87
2019-03-10T05:53:50.455Z,6.92
2019-03-10T05:54:50.391Z,7.02
2019-03-10T05:55:50.347Z,7.02
2019-03-10T05:56:50.297Z,6.92
2019-03-10T05:57:50.268Z,6.99
2019-03-10T05:58:50.242Z,7.16
2019-03-10T05:59:50.224Z,7.31
2019-03-10T06:00:50.204Z,7.43
2019-03-10T06:01:50.112Z,7.48
2019-03-10T06:02:50.085Z,7.53
2019-03-10T06:03:50.058Z,7.49
2019-03-10T06:04:49.994Z,7.61
2019-03-10T06:05:49.945Z,7.71
2019-03-10T06:06:49.962Z,7.68
2019-03-10T06:07:49.939Z,7.82
2019-03-10T06:08:49.866Z,7.93
2019-03-10T06:09:49.788Z,7.92
2019-03-10T06:10:49.751Z,7.95
2019-03-10T06:11:49.720Z,7.85
2019-03-10T06:12:49.792Z,7.64
2019-03-10T06:13:49.630Z,7.71
2019-03-10T06:14:49.629Z,7.46
2019-03-10T06:15:49.551Z,7.57
2019-03-10T06:16:49.594Z,7.45
2019-03-10T06:17:49.505Z,7.28
2019-03-10T06:18:49.453Z,7.31
2019-03-10T06:19:49.405Z,7.20
2019-03-10T06:20:49.421Z,7.15
2019-03-10T06:21:49.355Z,7.13
2019-03-10T06:22:49.324Z,7.03
2019-03-10T06:23:49.281Z,6.95
2019-03-10T06:24:49.210Z,6.97
2019-03-10T06:25:49.169Z,6.89
2019-03-10T06:26:49.122Z,6.89
2019-03-10T06:27:49.122Z,6.91
2019-03-10T06:28:50.861Z,6.85
2019-03-10T06:29:49.014Z,6.87
2019-03-10T06:30:48.961Z,6.74
2019-03-10T06:31:48.936Z,6.77
2019-03-10T06:32:48.909Z,6.79
2019-03-10T06:33:48.866Z,6.77
2019-03-10T06:34:48.807Z,6.74
2019-03-10T06:35:48.823Z,6.71
2019-03-10T06:36:48.724Z,6.74
2019-03-10T06:37:48.694Z,6.69
2019-03-10T06:38:48.653Z,6.73
2019-03-10T06:39:48.617Z,6.71
2019-03-10T06:40:48.562Z,6.62
2019-03-10T06:41:48.527Z,6.69
2019-03-10T06:42:48.520Z,6.64
2019-03-10T06:43:48.455Z,6.74
2019-03-10T06:44:48.417Z,6.88
2019-03-10T06:45:48.381Z,6.95
2019-03-10T06:46:48.329Z,6.91
2019-03-10T06:47:48.391Z,6.99
2019-03-10T06:48:48.326Z,6.91
2019-03-10T06:49:48.225Z,6.84
2019-03-10T06:50:48.189Z,6.92
2019-03-10T06:51:48.140Z,6.88
2019-03-10T06:52:48.132Z,6.89
2019-03-10T06:53:48.076Z,6.85
2019-03-10T06:54:48.136Z,6.84
2019-03-10T06:55:48.170Z,6.81
2019-03-10T06:56:47.943Z,6.87
2019-03-10T06:57:47.939Z,6.89
2019-03-10T06:58:47.930Z,6.95
2019-03-10T06:59:49.799Z,6.95
2019-03-10T07:00:47.801Z,7.16
2019-03-10T07:01:47.737Z,7.24
2019-03-10T07:02:47.733Z,7.21
2019-03-10T07:03:47.662Z,7.16
2019-03-10T07:04:47.620Z,7.13
2019-03-10T07:05:47.601Z,7.23
2019-03-10T07:06:47.539Z,7.17
2019-03-10T07:07:47.499Z,7.10
2019-03-10T07:08:47.492Z,7.20
2019-03-10T07:09:47.422Z,7.17
2019-03-10T07:10:47.367Z,7.21
2019-03-10T07:11:47.349Z,7.03
2019-03-10T07:12:47.305Z,7.02
2019-03-10T07:13:47.262Z,7.05
2019-03-10T07:14:47.223Z,7.03
2019-03-10T07:15:47.182Z,6.99
2019-03-10T07:16:47.165Z,6.99
2019-03-10T07:17:47.118Z,7.02
2019-03-10T07:18:47.080Z,6.99
2019-03-10T07:19:47.021Z,7.06
2019-03-10T07:20:47.000Z,6.91
2019-03-10T07:21:46.941Z,6.88
2019-03-10T07:22:46.954Z,6.87
2019-03-10T07:23:46.885Z,6.97
2019-03-10T07:24:46.835Z,6.92
2019-03-10T07:25:46.795Z,6.88
2019-03-10T07:26:46.756Z,6.94
2019-03-10T07:27:46.710Z,6.99
2019-03-10T07:28:46.666Z,6.92
2019-03-10T07:29:46.661Z,6.88
2019-03-10T07:30:46.595Z,6.87
2019-03-10T07:31:46.602Z,6.91
2019-03-10T07:32:46.499Z,6.89
2019-03-10T07:33:46.512Z,6.92
2019-03-10T07:34:46.461Z,6.91
2019-03-10T07:35:46.401Z,6.99
2019-03-10T07:36:46.359Z,6.99
2019-03-10T07:37:46.358Z,7.02
2019-03-10T07:38:46.299Z,7.07
2019-03-10T07:39:46.221Z,6.99
2019-03-10T07:40:46.205Z,6.99
2019-03-10T07:41:46.158Z,6.97
2019-03-10T07:42:46.157Z,7.05
2019-03-10T07:43:46.169Z,7.06
2019-03-10T07:44:46.102Z,7.12
2019-03-10T07:45:46.027Z,7.20
2019-03-10T07:46:45.966Z,7.15
2019-03-10T07:47:45.945Z,7.23
2019-03-10T07:48:45.874Z,7.27
2019-03-10T07:49:45.873Z,7.34
2019-03-10T07:50:45.796Z,7.27
2019-03-10T07:51:45.791Z,7.42
2019-03-10T07:52:45.729Z,7.39
2019-03-10T07:53:45.709Z,7.40
2019-03-10T07:54:45.637Z,7.32
2019-03-10T07:55:45.631Z,7.31
2019-03-10T07:56:45.601Z,7.30
2019-03-10T07:57:45.552Z,7.35
2019-03-10T07:58:45.541Z,7.25
2019-03-10T07:59:45.487Z,7.20
2019-03-10T08:00:45.413Z,7.28
2019-03-10T08:01:45.369Z,7.17
2019-03-10T08:02:45.333Z,7.23
2019-03-10T08:03:45.374Z,7.16
2019-03-10T08:04:45.253Z,7.16
2019-03-10T08:05:45.248Z,7.30
2019-03-10T08:06:45.178Z,7.24
2019-03-10T08:07:45.192Z,7.21
2019-03-10T08:08:45.122Z,7.17
2019-03-10T08:09:45.057Z,7.27
2019-03-10T08:10:45.018Z,7.17
2019-03-10T08:11:45.037Z,7.28
2019-03-10T08:12:44.950Z,7.16
2019-03-10T08:13:44.899Z,7.15
2019-03-10T08:14:44.881Z,7.09
2019-03-10T08:15:44.836Z,7.16
2019-03-10T08:16:44.771Z,7.24
2019-03-10T08:17:44.751Z,7.23
2019-03-10T08:18:44.728Z,7.24
2019-03-10T08:19:44.699Z,7.28
2019-03-10T08:20:44.656Z,7.30
2019-03-10T08:21:44.612Z,7.16
2019-03-10T08:22:44.538Z,7.23
2019-03-10T08:23:44.535Z,7.16
2019-03-10T08:24:44.513Z,7.17
2019-03-10T08:25:44.480Z,7.12
2019-03-10T08:26:44.390Z,7.23
2019-03-10T08:27:44.455Z,7.09
2019-03-10T08:28:44.336Z,7.10
2019-03-10T08:29:44.475Z,7.20
2019-03-10T08:30:44.439Z,7.06
2019-03-10T08:31:44.414Z,7.07
2019-03-10T08:32:44.347Z,7.10
2019-03-10T08:33:44.186Z,7.09
2019-03-10T08:34:44.195Z,7.17
2019-03-10T08:35:44.154Z,7.21
2019-03-10T08:36:44.125Z,7.23
2019-03-10T08:37:44.005Z,7.23
2019-03-10T08:38:44.063Z,7.21
2019-03-10T08:39:44.080Z,7.21
2019-03-10T08:40:43.971Z,7.15
2019-03-10T08:41:44.031Z,7.15
2019-03-10T08:42:43.950Z,7.24
2019-03-10T08:43:43.906Z,7.28
2019-03-10T08:44:43.776Z,7.31
2019-03-10T08:45:43.719Z,7.40
2019-03-10T08:46:43.779Z,7.37
2019-03-10T08:47:43.642Z,7.35
2019-03-10T08:48:43.738Z,7.42
2019-03-10T08:49:45.443Z,7.42
2019-03-10T08:50:43.546Z,7.53
2019-03-10T08:51:43.495Z,7.48
2019-03-10T08:52:43.391Z,7.64
2019-03-10T08:53:43.490Z,7.61
2019-03-10T08:54:43.314Z,7.74
2019-03-10T08:55:43.296Z,7.77
2019-03-10T08:56:43.417Z,7.74
2019-03-10T08:57:43.362Z,7.74
2019-03-10T08:58:43.203Z,7.79
2019-03-10T08:59:43.193Z,7.74
2019-03-10T09:00:43.142Z,7.72
2019-03-10T09:01:43.302Z,7.75
2019-03-10T09:02:45.524Z,7.92
2019-03-10T09:03:43.120Z,8.08
2019-03-10T09:04:43.201Z,7.98
2019-03-10T09:05:42.938Z,7.97
2019-03-10T09:06:44.685Z,8.04
2019-03-10T09:07:42.947Z,8.08
2019-03-10T09:08:43.032Z,8.04
2019-03-10T09:09:42.865Z,8.11
2019-03-10T09:10:42.835Z,8.20
2019-03-10T09:11:42.678Z,8.16
2019-03-10T09:12:42.652Z,8.28
2019-03-10T09:13:42.646Z,8.34
2019-03-10T09:14:42.596Z,8.37
2019-03-10T09:15:42.524Z,8.37
2019-03-10T09:16:42.713Z,8.23
2019-03-10T09:17:42.511Z,8.26
2019-03-10T09:18:42.503Z,8.20
2019-03-10T09:19:42.407Z,8.23
2019-03-10T09:20:42.430Z,8.26
2019-03-10T09:21:42.300Z,8.33
2019-03-10T09:22:42.250Z,8.36
2019-03-10T09:23:42.225Z,8.36
2019-03-10T09:24:42.201Z,8.48
2019-03-10T09:25:42.138Z,8.38
2019-03-10T09:26:42.136Z,8.37
2019-03-10T09:27:42.077Z,8.22
2019-03-10T09:28:42.063Z,8.23
2019-03-10T09:29:42.023Z,8.23
2019-03-10T09:30:41.970Z,8.20
2019-03-10T09:31:41.917Z,8.25
2019-03-10T09:32:41.975Z,8.26
2019-03-10T09:33:41.866Z,8.18
2019-03-10T09:34:41.800Z,8.22
2019-03-10T09:35:41.827Z,8.16
2019-03-10T09:36:41.795Z,8.16
2019-03-10T09:37:41.796Z,8.16
2019-03-10T09:38:41.665Z,8.16
2019-03-10T09:39:41.648Z,8.18
2019-03-10T09:40:41.618Z,8.22
2019-03-10T09:41:41.526Z,8.26
2019-03-10T09:42:41.500Z,8.25
2019-03-10T09:43:41.467Z,8.23
2019-03-10T09:44:41.704Z,8.28
2019-03-10T09:45:41.445Z,8.22
2019-03-10T09:46:41.374Z,8.19
2019-03-10T09:47:41.361Z,8.30
2019-03-10T09:48:41.265Z,8.43
2019-03-10T09:49:41.361Z,8.45
2019-03-10T09:50:41.195Z,8.59
2019-03-10T09:51:41.164Z,8.79
2019-03-10T09:52:41.248Z,8.92
2019-03-10T09:53:41.159Z,8.95
2019-03-10T09:54:41.127Z,8.92
2019-03-10T09:55:41.345Z,8.80
2019-03-10T09:56:41.568Z,8.73
2019-03-10T09:57:40.957Z,8.62
2019-03-10T09:58:41.049Z,8.65
2019-03-10T09:59:40.918Z,8.66
2019-03-10T10:00:41.124Z,8.83
2019-03-10T10:01:40.838Z,8.80
2019-03-10T10:02:40.781Z,8.83
2019-03-10T10:03:40.724Z,8.65
2019-03-10T10:04:40.697Z,8.65
2019-03-10T10:05:40.678Z,8.65
2019-03-10T10:06:40.616Z,8.59
2019-03-10T10:07:40.583Z,8.70
2019-03-10T10:08:40.537Z,8.65
2019-03-10T10:09:40.495Z,8.89
2019-03-10T10:10:40.543Z,8.92
2019-03-10T10:11:40.421Z,8.91
2019-03-10T10:12:40.419Z,8.91
2019-03-10T10:13:40.405Z,8.91
2019-03-10T10:14:41.121Z,8.95
2019-03-10T10:15:40.315Z,9.13
2019-03-10T10:16:40.247Z,9.14
2019-03-10T10:17:40.192Z,9.23
2019-03-10T10:18:40.176Z,9.21
2019-03-10T10:19:40.363Z,9.18
2019-03-10T10:20:40.589Z,9.20
2019-03-10T10:21:40.090Z,9.20
2019-03-10T10:22:40.052Z,9.26
2019-03-10T10:23:40.077Z,9.32
2019-03-10T10:24:40.025Z,9.50
2019-03-10T10:25:39.947Z,9.65
2019-03-10T10:26:39.906Z,9.91
2019-03-10T10:27:39.907Z,9.96
2019-03-10T10:28:39.816Z,10.09
2019-03-10T10:29:39.788Z,10.25
2019-03-10T10:30:39.765Z,10.14
2019-03-10T10:31:39.733Z,10.05
2019-03-10T10:32:39.649Z,10.08
2019-03-10T10:33:39.647Z,10.25
2019-03-10T10:34:39.557Z,10.12
2019-03-10T10:35:39.541Z,10.36
2019-03-10T10:36:39.581Z,10.61
2019-03-10T10:37:39.542Z,10.81
2019-03-10T10:38:39.439Z,10.82
2019-03-10T10:39:39.419Z,10.68
2019-03-10T10:40:39.363Z,10.89
2019-03-10T10:41:39.295Z,10.85
2019-03-10T10:42:39.403Z,10.78
2019-03-10T10:43:39.253Z,10.88
2019-03-10T10:44:39.288Z,11.22
2019-03-10T10:45:39.184Z,12.04
2019-03-10T10:46:39.179Z,11.91
2019-03-10T10:47:39.288Z,11.78
2019-03-10T10:48:39.645Z,11.54
2019-03-10T10:49:39.030Z,11.49
2019-03-10T10:50:39.275Z,11.47
2019-03-10T10:51:38.917Z,11.57
2019-03-10T10:52:38.909Z,11.57
2019-03-10T10:53:38.881Z,11.57
2019-03-10T10:54:38.837Z,11.99
2019-03-10T10:55:38.835Z,12.45
2019-03-10T10:56:38.814Z,12.38
2019-03-10T10:57:38.737Z,13.01
2019-03-10T10:58:38.690Z,12.95
2019-03-10T10:59:38.687Z,13.85
2019-03-10T11:00:38.610Z,14.03
2019-03-10T11:01:38.589Z,13.82
2019-03-10T11:02:38.591Z,14.07
2019-03-10T11:03:38.513Z,13.96
2019-03-10T11:04:38.492Z,14.58
2019-03-10T11:05:38.437Z,14.62
2019-03-10T11:06:38.415Z,14.68
2019-03-10T11:07:38.417Z,14.46
2019-03-10T11:08:38.357Z,13.95
2019-03-10T11:09:38.311Z,13.95
2019-03-10T11:10:38.300Z,14.47
2019-03-10T11:11:38.282Z,14.80
2019-03-10T11:12:38.264Z,14.94
2019-03-10T11:13:38.274Z,14.51
2019-03-10T11:14:38.174Z,14.04
2019-03-10T11:15:38.136Z,13.49
2019-03-10T11:16:38.085Z,13.51
2019-03-10T11:17:38.053Z,13.26
2019-03-10T11:18:38.040Z,13.46
2019-03-10T11:19:37.991Z,14.04
2019-03-10T11:20:37.975Z,14.20
2019-03-10T11:21:37.983Z,14.15
2019-03-10T11:22:37.900Z,14.02
2019-03-10T11:23:37.892Z,13.82
2019-03-10T11:24:37.850Z,13.51
2019-03-10T11:25:37.810Z,13.19
2019-03-10T11:26:37.827Z,12.82
2019-03-10T11:27:37.737Z,12.60
2019-03-10T11:28:37.729Z,12.49
2019-03-10T11:29:37.712Z,12.39
2019-03-10T11:30:37.645Z,12.42
2019-03-10T11:31:37.649Z,12.23
2019-03-10T11:32:37.579Z,12.29
2019-03-10T11:33:37.573Z,12.31
2019-03-10T11:34:37.538Z,12.24
2019-03-10T11:35:37.484Z,12.19
2019-03-10T11:36:37.824Z,12.13
2019-03-10T11:37:37.433Z,12.13
2019-03-10T11:38:37.431Z,12.17
2019-03-10T11:39:37.377Z,12.13
2019-03-10T11:40:37.343Z,12.16
2019-03-10T11:41:37.299Z,12.20
2019-03-10T11:42:37.272Z,12.38
2019-03-10T11:43:37.230Z,12.45
2019-03-10T11:44:37.219Z,12.64
2019-03-10T11:45:37.162Z,12.68
2019-03-10T11:46:37.157Z,12.64
2019-03-10T11:47:37.163Z,12.65
2019-03-10T11:48:37.076Z,12.70
2019-03-10T11:49:37.074Z,12.85
2019-03-10T11:50:37.058Z,12.64
2019-03-10T11:51:36.984Z,12.78
2019-03-10T11:52:37.652Z,12.93
2019-03-10T11:53:36.896Z,13.10
2019-03-10T11:54:36.867Z,13.11
2019-03-10T11:55:36.833Z,13.08
2019-03-10T11:56:36.827Z,13.07
2019-03-10T11:57:36.783Z,13.03
2019-03-10T11:58:36.734Z,13.04
2019-03-10T11:59:36.729Z,13.26
2019-03-10T12:00:36.695Z,13.14
2019-03-10T12:01:36.636Z,13.15
2019-03-10T12:02:36.603Z,13.14
2019-03-10T12:03:36.576Z,13.11
2019-03-10T12:04:36.549Z,13.01
2019-03-10T12:05:36.516Z,13.03
2019-03-10T12:06:36.461Z,12.95
2019-03-10T12:07:36.472Z,12.85
2019-03-10T12:08:36.394Z,12.75
2019-03-10T12:09:36.387Z,12.70
2019-03-10T12:10:36.356Z,12.57
2019-03-10T12:11:36.290Z,12.47
2019-03-10T12:12:36.291Z,12.42
2019-03-10T12:13:36.230Z,12.35
2019-03-10T12:14:36.208Z,12.39
2019-03-10T12:15:36.165Z,12.37
2019-03-10T12:16:36.132Z,12.28
2019-03-10T12:17:36.633Z,12.23
2019-03-10T12:18:36.075Z,12.38
2019-03-10T12:19:36.027Z,13.32
2019-03-10T12:20:36.012Z,14.20
2019-03-10T12:21:35.983Z,14.33
2019-03-10T12:22:35.959Z,14.58
2019-03-10T12:23:36.004Z,14.98
2019-03-10T12:24:35.867Z,14.46
2019-03-10T12:25:35.842Z,14.18
2019-03-10T12:26:35.818Z,14.39
2019-03-10T12:27:35.784Z,14.70
2019-03-10T12:28:35.731Z,15.10
2019-03-10T12:29:35.702Z,15.06
2019-03-10T12:30:35.703Z,14.32
2019-03-10T12:31:35.715Z,14.69
2019-03-10T12:32:35.660Z,15.02
2019-03-10T12:33:35.586Z,15.28
2019-03-10T12:34:35.524Z,15.28
2019-03-10T12:35:35.519Z,15.21
2019-03-10T12:36:35.571Z,15.50
2019-03-10T12:37:35.441Z,15.68
2019-03-10T12:38:35.453Z,15.62
2019-03-10T12:39:35.386Z,15.71
2019-03-10T12:40:35.339Z,15.76
2019-03-10T12:41:35.338Z,15.89
2019-03-10T12:42:35.303Z,16.21
2019-03-10T12:43:35.261Z,16.48
2019-03-10T12:44:35.251Z,16.63
2019-03-10T12:45:35.212Z,16.35
2019-03-10T12:46:35.248Z,15.59
2019-03-10T12:47:35.169Z,15.31
2019-03-10T12:48:35.098Z,15.01
2019-03-10T12:49:35.098Z,14.89
2019-03-10T12:50:35.081Z,14.80
2019-03-10T12:51:35.007Z,14.62
2019-03-10T12:52:35.016Z,14.65
2019-03-10T12:53:34.992Z,14.37
2019-03-10T12:54:34.917Z,14.42
2019-03-10T12:55:34.956Z,14.28
2019-03-10T12:56:34.884Z,14.14
2019-03-10T12:57:34.953Z,14.07
2019-03-10T12:58:34.808Z,13.96
2019-03-10T12:59:34.796Z,13.91
2019-03-10T13:00:34.754Z,13.84
2019-03-10T13:01:34.720Z,13.71
2019-03-10T13:02:34.707Z,13.88
2019-03-10T13:03:34.710Z,13.91
2019-03-10T13:04:34.623Z,14.07
2019-03-10T13:05:34.604Z,14.07
2019-03-10T13:06:34.581Z,14.04
2019-03-10T13:07:34.529Z,14.09
2019-03-10T13:08:34.492Z,14.14
2019-03-10T13:09:35.149Z,14.15
2019-03-10T13:10:34.491Z,14.03
2019-03-10T13:11:34.529Z,14.09